Latest Flight | Flight Log | Data Trends | Login | Join FlightData.com!
Date Range From To
Export:
Flight Log - N8421F - Click on row to view flight. Click on header to sort.
Date Origin Dest Depart Arrive Hobbs Flight Time Flight Distance Fuel Fuel/hr Fuel/nm Altitude Gnd Speed
Mon, Jul 6, 2020 KGED KGAI 11:47 12:36 0.81 hrs 0.64 hrs 94.86 nm 11.42 gal 14.11 gal/hr 0.12 gal/nm 6059 msl 146 kts
Mon, Jul 6, 2020     11:42 11:42 0 hrs 0.00 hrs 0.00 nm 0.00 gal 0.00 gal/hr 0.00 gal/nm 0 msl 0 kts
Thu, Jul 2, 2020 KGAI KGED 09:01 10:32 1.5 hrs 1.33 hrs 198.78 nm 22.25 gal 14.85 gal/hr 0.11 gal/nm 5512 msl 147 kts
Thu, Jul 2, 2020     08:55 08:55 0 hrs 0.00 hrs 0.00 nm 0.04 gal 18.00 gal/hr 0.00 gal/nm 0 msl 0 kts
Wed, Jun 24, 2020 KGAI KGAI 15:34 17:09 1.56 hrs 1.39 hrs 188.70 nm 23.21 gal 14.86 gal/hr 0.12 gal/nm 5512 msl 134 kts
Wed, Jun 24, 2020     15:17 15:17 0 hrs 0.00 hrs 0.00 nm 0.04 gal 14.40 gal/hr 0.00 gal/nm 0 msl 0 kts
Tue, Jun 23, 2020 KGED KGAI 14:16 15:02 0.76 hrs 0.62 hrs 94.39 nm 10.35 gal 13.58 gal/hr 0.11 gal/nm 3034 msl 150 kts
Tue, Jun 23, 2020     14:11 14:11 0 hrs 0.00 hrs 0.00 nm 0.00 gal 0.00 gal/hr 0.00 gal/nm 0 msl 0 kts
Fri, Jun 19, 2020 KGAI KGED 12:13 13:20 1.11 hrs 0.76 hrs 116.93 nm 12.92 gal 11.68 gal/hr 0.11 gal/nm 7018 msl 151 kts
Fri, Jun 19, 2020     12:08 12:09 0 hrs 0.00 hrs 0.00 nm 0.02 gal 9.00 gal/hr 0.00 gal/nm 0 msl 0 kts
Mon, Jun 8, 2020 KGED KGAI 07:28 08:14 0.77 hrs 0.63 hrs 95.91 nm 10.89 gal 14.22 gal/hr 0.11 gal/nm 4519 msl 149 kts
Mon, Jun 8, 2020     07:13 07:13 0 hrs 0.00 hrs 0.00 nm 0.00 gal 0.00 gal/hr 0.00 gal/nm 0 msl 0 kts
Wed, Jun 3, 2020 KGAI KGED 16:31 17:17 0.76 hrs 0.58 hrs 103.55 nm 10.87 gal 14.38 gal/hr 0.10 gal/nm 7010 msl 175 kts
Wed, Jun 3, 2020     16:24 16:24 0.01 hrs 0.00 hrs 0.00 nm 0.41 gal 70.29 gal/hr 0.00 gal/nm 0 msl 0 kts
Tue, Jun 2, 2020     13:31 13:32 0.02 hrs 0.00 hrs 0.00 nm 0.07 gal 3.15 gal/hr 0.00 gal/nm 0 msl 0 kts
Mon, Jun 1, 2020 KGED KGAI 07:41 08:31 0.83 hrs 0.67 hrs 98.52 nm 11.55 gal 13.88 gal/hr 0.12 gal/nm 4518 msl 146 kts
Mon, Jun 1, 2020     07:30 07:30 0.01 hrs 0.00 hrs 0.00 nm 0.02 gal 3.60 gal/hr 0.00 gal/nm 0 msl 0 kts
Thu, May 28, 2020 KGAI KGED 10:53 11:50 0.94 hrs 0.78 hrs 113.20 nm 12.66 gal 13.53 gal/hr 0.11 gal/nm 5038 msl 143 kts
Thu, May 28, 2020 KGAI KGAI 09:05 10:49 1.7 hrs 1.41 hrs 193.36 nm 23.75 gal 13.98 gal/hr 0.12 gal/nm 5030 msl 135 kts
Thu, May 28, 2020     09:00 09:01 0.01 hrs 0.00 hrs 0.00 nm 0.29 gal 23.73 gal/hr 0.00 gal/nm 0 msl 0 kts
Wed, May 27, 2020     12:47 12:48 0.01 hrs 0.00 hrs 0.00 nm 0.01 gal 0.82 gal/hr 0.00 gal/nm 0 msl 0 kts
Wed, May 27, 2020     12:46 12:47 0.01 hrs 0.00 hrs 0.00 nm 0.14 gal 11.72 gal/hr 0.00 gal/nm 0 msl 0 kts
          10.81 hrs 8.81 hrs 1298.20 nm 150.91 gal